AirNav   Pilot Hours Calculator
 
 1119 users online  

KGFD Pope Field Airport
Greenfield, Indiana, USA

GOING TO GREENFIELD?


FAA INFORMATION EFFECTIVE 14 JULY 2022

Location

FAA Identifier: GFD
Lat/Long: 39-47-25.1550N 085-44-09.9190W
39-47.419250N 085-44.165317W
39.7903208,-85.7360886
(estimated)
Elevation: 895 ft. / 273 m (estimated)
Variation: 02W (1985)
From city: 2 miles NE of GREENFIELD, IN
Time zone: UTC -4 (UTC -5 during Standard Time)
Zip code: 46140

Airport Operations

Airport use: Open to the public
Activation date: 06/1945
Control tower: no
ARTCC: INDIANAPOLIS CENTER
FSS: TERRE HAUTE FLIGHT SERVICE STATION
NOTAMs facility: HUF (NOTAM-D service available)
Attendance: UNATNDD
Wind indicator: yes
Segmented circle: no

Airport Communications

CTAF: 122.9
WX AWOS-3 at MQJ (8 nm NW): 124.175 (317-335-3037)
WX ASOS at GEZ (13 nm S): 121.55 (317-398-0246)
WX AWOS-3 at UMP (17 nm NW): 119.375 (317-842-3911)
WX AWOS-3P at HFY (19 nm SW): 118.525 (317-882-5862)
WX AWOS-3 at 8A4 (19 nm W): 135.525 (317-955-3160)
WX AWOS-3 at AID (20 nm N): 128.55 (765-442-1245)

Nearby radio navigation aids

VOR radial/distance  VOR name  Freq  Var
SHBr022/10.3SHELBYVILLE VOR/DME116.1501E
VHPr092/29.1BRICKYARD VORTAC116.3001E
MIEr213/31.1MUNCIE VOR/DME114.4003W

 
NDB name  Hdg/Dist  Freq  Var  ID
METROPOLITAN124/17.033803WUMP ..- -- .--.
NEW CASTLE260/20.038506WUWL ..- .-- .-..
BATESVILLE325/34.625405WHLB .... .-.. -...

Airport Services

Parking: hangars and tiedowns
Bottled oxygen: NONE
Bulk oxygen: NONE

Runway Information

Runway 18/36

Dimensions: 2165 x 150 ft. / 660 x 46 m
Surface: turf, in good condition
Runway edge markings: DSPLCD THR MKD WITH INOP RWY LGTS.
Operational restrictions: CROPS 55 FT N OF RWY 18 DSPLCD THR & 75 FT E & W OF RWY CNTRLN.
RUNWAY 18  RUNWAY 36
Latitude: 39-47.665333N39-47.335833N
Longitude: 085-44.115167W085-44.115167W
Elevation: 896.0 ft.897.0 ft.
Traffic pattern: leftleft
Displaced threshold: 165 ft.no
Obstructions: 70 ft. trees, 155 ft. from runway, 140 ft. right of centerline, 2:1 slope to clear
70 FT TREES 320 FT FM RWY END 150 FT R; APCH RATIO 4:1 AT DSPLCD THR.
30 ft. pole, lighted, 225 ft. from runway, 140 ft. left of centerline, 7:1 slope to clear

Airport Ownership and Management from official FAA records

Ownership: Privately-owned
Owner: POPE ARPT INC.
PO BOX 333
GREENFIELD, IN 46140
Phone 317-467-9740
Manager: LISA NEILL
PO BOX 333
GREENFIELD, IN 46140
Phone 317-467-9740

Airport Operational Statistics

Aircraft based on the field: 14
Single engine airplanes: 7
Ultralights: 7
    
Aircraft operations: avg 79/week *
55% local general aviation
44% transient general aviation
1% military
* for 12-month period ending 31 December 2019

Additional Remarks

FOR CD CTC INDIANAPOLIS APCH AT 317-227-5743.

Instrument Procedures

There are no published instrument procedures at KGFD.

Some nearby airports with instrument procedures:

KMQJ - Indianapolis Regional Airport (8 nm NW)
KGEZ - Shelbyville Municipal Airport (13 nm S)
KUMP - Indianapolis Metro Airport (17 nm NW)
KHFY - Indy South Greenwood Airport (19 nm SW)
8A4 - Indianapolis Downtown Heliport (19 nm W)
KUWL - New Castle Henry County Airport / Marlatt Field (20 nm E)
KAID - Anderson Municipal Airport-Darlington Field (20 nm N)
 
Loc | Ops | Rwys | IFR | FBO | Links
Com | Nav | Svcs | Stats | Notes
Area around KGFD (Pope Field Airport)
 
Road maps at: MapQuest Bing Google
 
Aerial photo
No photo
 
Sectional chart

 
Airport distance calculator
Flying to Pope Field Airport? Find the distance to fly.

From to KGFD

Sunrise and sunset
Times for 07-Aug-2022
 Local
(UTC-4)
 Zulu
(UTC)
Morning civil twilight06:1910:19
Sunrise06:4810:48
Sunset20:4900:49
Evening civil twilight21:1901:19

Current date and time
Zulu (UTC)  08-Aug-2022 00:27:08
Local (UTC-4)  07-Aug-2022 20:27:08
 
METAR
KMQJ 
8nm NW 
080015Z AUTO 08003KT 10SM BKN045 BKN050 BKN065 28/23 A3006 RMK AO1
KGEZ 
13nm S 
072353Z AUTO 19005KT 10SM CLR 31/24 A3005 RMK AO2 SLP169 T03060239 10328 20306 56007 $
KUMP 
17nm NW 
080015Z AUTO 00000KT 10SM CLR 29/25 A3006 RMK AO2 T02880246
KHFY 
19nm SW 
080015Z AUTO 23003KT 10SM SCT035 SCT041 30/25 A3007 RMK AO2 T02960246
TAF
KIND 
26nm W 
072011Z 0720/0824 24012G20KT P6SM BKN040 FM080100 23009KT P6SM FEW250 FM081000 23005KT P6SM BKN100 FM081800 21010G18KT P6SM BKN040 PROB30 0818/0824 3SM TSRA BKN035CB
NOTAMs
Click for the latest NOTAMs
NOTAMs are issued by the DoD/FAA and will open in a separate window not controlled by AirNav.

 

 
 

Would you like to see your business listed on this page?

 If your business provides an interesting product or service to pilots, flight crews, aircraft, or users of the Pope Field Airport, you should consider listing it here.  To start the listing process, click on the button below
 
Add a business
 

Other Pages about Pope Field Airport

Update a link
 
Copyright © AirNav, LLC. All rights reserved. Privacy Policy  Contact